Terminal Aerodrome Forecast
Issued by NWS

Current Version | Previous Version | Text Only | Print | Product List | Glossary On
Versions: 1 2 3 4 5 6 7 8 9 10 11 12 13 14 15 16
000
FTUS41 KBTV 020500
TAFMSS
TAF
KMSS 020520Z 0206/0306 05009KT P6SM SKC
     FM020800 06003KT 5SM BR SCT001 SCT250
      TEMPO 0208/0211 2SM BR
     FM021300 07006KT P6SM SCT200=

USA.gov is the U.S. government's official web portal to all federal, state and local government web resources and services.